Shinsei Maru — JD2188 — position and weather

sailwx.info

Track history (hours):
 
Tides and Currents Weather Stations Pressure Air Temp Water Temp Dewpoint Dewpoint Depression Visibility Wind Speed Wind Dir Waves Ship Positions

Shinsei Maru

Last reported at 2014-Aug-27 15:29 UTC. Time now 2014-Aug-29 14:19 UTC.
Position N 34°10' E 134°57'.

Length 104 m.

Type: Tanker. MMSI: 431301775.

Date/timePositionNaut miles runAvg speedWind from/ knotsBaromVisibWave heightAir tempDewpointWater temp
2014-Aug-27 15:29N 34°10' E 134°57'1314.4
2014-Aug-27 14:33N 34°23' E 135°02'1515.0
2014-Aug-27 13:33N 34°31' E 135°17'7 7.3
2014-Aug-27 12:33N 34°33' E 135°26'0 0.0
2014-Aug-27 11:28N 34°33' E 135°26'0 0.0
2014-Aug-27 10:32N 34°33' E 135°26'0 0.0
2014-Aug-27 09:31N 34°33' E 135°26'0 0.1
2014-Aug-27 08:25N 34°33' E 135°26'8 9.8
2014-Aug-27 07:33N 34°30' E 135°16'1313.4
2014-Aug-27 06:33N 34°21' E 135°04'1010.4
2014-Aug-27 05:33N 34°11' E 135°04'5 0.8
2014-Aug-26 23:28N 34°07' E 135°08'4 4.7
2014-Aug-26 22:33N 34°11' E 135°06'3 2.6
2014-Aug-26 21:33N 34°13' E 135°09'0 0.0
2014-Aug-26 20:33N 34°13' E 135°09'0 0.0
2014-Aug-26 19:33N 34°13' E 135°09'0 0.0
2014-Aug-26 18:33N 34°13' E 135°09'0 0.0
2014-Aug-26 17:33N 34°13' E 135°09'0 0.0
2014-Aug-26 16:27N 34°13' E 135°09'0 0.0
2014-Aug-26 15:33N 34°13' E 135°09'0 0.0
2014-Aug-26 14:33N 34°13' E 135°09'0 0.0
2014-Aug-26 13:33N 34°13' E 135°09'0 0.0
2014-Aug-26 12:33N 34°13' E 135°09'0 0.0
2014-Aug-26 11:27N 34°13' E 135°09'0 0.0
2014-Aug-26 10:21N 34°13' E 135°09'0 0.0
2014-Aug-26 09:33N 34°13' E 135°09'0 0.0
2014-Aug-26 08:24N 34°13' E 135°09'0 0.0
2014-Aug-26 07:27N 34°13' E 135°09'0 0.0
2014-Aug-26 03:24N 34°13' E 135°09'2 2.1
2014-Aug-26 02:31N 34°12' E 135°07'4 4.3
2014-Aug-26 01:33N 34°09' E 135°04'23011.5
2014-Aug-25 05:33N 34°43' E 139°40'1414.0
2014-Aug-25 04:31N 34°49' E 139°56'1313.7
2014-Aug-25 03:33N 34°56' E 140°09'2013.4
2014-Aug-25 02:05N 35°07' E 140°29'714.0
2014-Aug-25 01:33N 35°14' E 140°34'3013.8
2014-Aug-24 23:21N 35°39' E 140°55'  
2014-Aug-22 13:15N 35°25' E 140°44'5712.2
2014-Aug-22 08:33N 34°58' E 139°42'1312.9
2014-Aug-22 07:33N 35°11' E 139°46'1212.5
2014-Aug-22 06:34N 35°23' E 139°42'1212.4
2014-Aug-22 05:33N 35°31' E 139°54'7 6.5
2014-Aug-22 04:33N 35°31' E 140°02'0 0.0
2014-Aug-22 03:28N 35°31' E 140°02'0 0.0
2014-Aug-22 02:28N 35°31' E 140°02'0 0.0
2014-Aug-22 01:22N 35°31' E 140°02'0 0.0
2014-Aug-22 00:28N 35°31' E 140°02'0 0.0
2014-Aug-21 23:25N 35°31' E 140°02'0 0.0
2014-Aug-21 22:28N 35°31' E 140°02'1 1.7
2014-Aug-21 21:33N 35°31' E 140°01'6 5.9
2014-Aug-21 20:33N 35°29' E 139°54'0 0.0
2014-Aug-21 19:24N 35°29' E 139°54'0 0.0
2014-Aug-21 18:33N 35°29' E 139°54'0 0.0
2014-Aug-21 17:33N 35°29' E 139°54'0 0.0
2014-Aug-21 16:33N 35°29' E 139°54'0 0.1
2014-Aug-21 15:33N 35°29' E 139°54'0 0.0
2014-Aug-21 14:30N 35°29' E 139°54'0 0.0
2014-Aug-21 13:27N 35°29' E 139°54'0 0.0
2014-Aug-21 12:33N 35°29' E 139°54'0 0.0
2014-Aug-21 11:33N 35°29' E 139°54'0 0.0
2014-Aug-21 10:32N 35°29' E 139°54'0 0.0
2014-Aug-21 09:34N 35°29' E 139°54'0 0.0
2014-Aug-21 08:33N 35°29' E 139°54'4 4.1
2014-Aug-21 07:34N 35°27' E 139°50'1211.7
2014-Aug-21 06:33N 35°16' E 139°47'1414.0
2014-Aug-21 05:33N 35°02' E 139°43'1512.7
2014-Aug-21 04:25N 34°49' E 139°52'1113.0
2014-Aug-21 03:33N 34°54' E 140°04'1312.5
2014-Aug-21 02:33N 35°01' E 140°17'1312.4
2014-Aug-21 01:33N 35°08' E 140°30'4313.8
2014-Aug-20 22:28N 35°44' E 140°59'  
Track history (hours):
 
Tides and Currents Weather Stations Pressure Air Temp Water Temp Dewpoint Dewpoint Depression Visibility Wind Speed Wind Dir Waves Ship Positions

Shinsei Maru

Last reported at 2014-Aug-27 15:29 UTC. Time now 2014-Aug-29 14:19 UTC.
Position N 34°10' E 134°57'.

Length 104 m.

Type: Tanker. MMSI: 431301775.

Date/timePositionNaut miles runAvg speedWind from/ knotsBaromVisibWave heightAir tempDewpointWater temp
2014-Aug-27 15:29N 34°10' E 134°57'1314.4
2014-Aug-27 14:33N 34°23' E 135°02'1515.0
2014-Aug-27 13:33N 34°31' E 135°17'7 7.3
2014-Aug-27 12:33N 34°33' E 135°26'0 0.0
2014-Aug-27 11:28N 34°33' E 135°26'0 0.0
2014-Aug-27 10:32N 34°33' E 135°26'0 0.0
2014-Aug-27 09:31N 34°33' E 135°26'0 0.1
2014-Aug-27 08:25N 34°33' E 135°26'8 9.8
2014-Aug-27 07:33N 34°30' E 135°16'1313.4
2014-Aug-27 06:33N 34°21' E 135°04'1010.4
2014-Aug-27 05:33N 34°11' E 135°04'5 0.8
2014-Aug-26 23:28N 34°07' E 135°08'4 4.7
2014-Aug-26 22:33N 34°11' E 135°06'3 2.6
2014-Aug-26 21:33N 34°13' E 135°09'0 0.0
2014-Aug-26 20:33N 34°13' E 135°09'0 0.0
2014-Aug-26 19:33N 34°13' E 135°09'0 0.0
2014-Aug-26 18:33N 34°13' E 135°09'0 0.0
2014-Aug-26 17:33N 34°13' E 135°09'0 0.0
2014-Aug-26 16:27N 34°13' E 135°09'0 0.0
2014-Aug-26 15:33N 34°13' E 135°09'0 0.0
2014-Aug-26 14:33N 34°13' E 135°09'0 0.0
2014-Aug-26 13:33N 34°13' E 135°09'0 0.0
2014-Aug-26 12:33N 34°13' E 135°09'0 0.0
2014-Aug-26 11:27N 34°13' E 135°09'0 0.0
2014-Aug-26 10:21N 34°13' E 135°09'0 0.0
2014-Aug-26 09:33N 34°13' E 135°09'0 0.0
2014-Aug-26 08:24N 34°13' E 135°09'0 0.0
2014-Aug-26 07:27N 34°13' E 135°09'0 0.0
2014-Aug-26 03:24N 34°13' E 135°09'2 2.1
2014-Aug-26 02:31N 34°12' E 135°07'4 4.3
2014-Aug-26 01:33N 34°09' E 135°04'23011.5
2014-Aug-25 05:33N 34°43' E 139°40'1414.0
2014-Aug-25 04:31N 34°49' E 139°56'1313.7
2014-Aug-25 03:33N 34°56' E 140°09'2013.4
2014-Aug-25 02:05N 35°07' E 140°29'714.0
2014-Aug-25 01:33N 35°14' E 140°34'3013.8
2014-Aug-24 23:21N 35°39' E 140°55'  
2014-Aug-22 13:15N 35°25' E 140°44'5712.2
2014-Aug-22 08:33N 34°58' E 139°42'1312.9
2014-Aug-22 07:33N 35°11' E 139°46'1212.5
2014-Aug-22 06:34N 35°23' E 139°42'1212.4
2014-Aug-22 05:33N 35°31' E 139°54'7 6.5
2014-Aug-22 04:33N 35°31' E 140°02'0 0.0
2014-Aug-22 03:28N 35°31' E 140°02'0 0.0
2014-Aug-22 02:28N 35°31' E 140°02'0 0.0
2014-Aug-22 01:22N 35°31' E 140°02'0 0.0
2014-Aug-22 00:28N 35°31' E 140°02'0 0.0
2014-Aug-21 23:25N 35°31' E 140°02'0 0.0
2014-Aug-21 22:28N 35°31' E 140°02'1 1.7
2014-Aug-21 21:33N 35°31' E 140°01'6 5.9
2014-Aug-21 20:33N 35°29' E 139°54'0 0.0
2014-Aug-21 19:24N 35°29' E 139°54'0 0.0
2014-Aug-21 18:33N 35°29' E 139°54'0 0.0
2014-Aug-21 17:33N 35°29' E 139°54'0 0.0
2014-Aug-21 16:33N 35°29' E 139°54'0 0.1
2014-Aug-21 15:33N 35°29' E 139°54'0 0.0
2014-Aug-21 14:30N 35°29' E 139°54'0 0.0
2014-Aug-21 13:27N 35°29' E 139°54'0 0.0
2014-Aug-21 12:33N 35°29' E 139°54'0 0.0
2014-Aug-21 11:33N 35°29' E 139°54'0 0.0
2014-Aug-21 10:32N 35°29' E 139°54'0 0.0
2014-Aug-21 09:34N 35°29' E 139°54'0 0.0
2014-Aug-21 08:33N 35°29' E 139°54'4 4.1
2014-Aug-21 07:34N 35°27' E 139°50'1211.7
2014-Aug-21 06:33N 35°16' E 139°47'1414.0
2014-Aug-21 05:33N 35°02' E 139°43'1512.7
2014-Aug-21 04:25N 34°49' E 139°52'1113.0
2014-Aug-21 03:33N 34°54' E 140°04'1312.5
2014-Aug-21 02:33N 35°01' E 140°17'1312.4
2014-Aug-21 01:33N 35°08' E 140°30'4313.8
2014-Aug-20 22:28N 35°44' E 140°59'  

Dump ship's entire track history